Time;durP1;ratioP1;P1;durP2;ratioP2;P2;SDS_P1;SDS_P2;PMS_P1;PMS_P2;Temp;Humidity;BMP_temperature;BMP_pressure;BME280_temperature;BME280_humidity;BME280_pressure;Samples;Min_cycle;Max_cycle;Signal;HPM_P1;HPM_P2
2021/01/24 00:00:30;;;;;;;26.40;13.80;;;;;;;-2.86;100.00;98962.97;4967216;28;20598;-70
2021/01/24 00:02:56;;;;;;;35.00;15.77;;;;;;;-2.79;100.00;98958.72;4969362;28;20046;-70
2021/01/24 00:05:23;;;;;;;27.87;14.87;;;;;;;-2.77;100.00;98960.47;4984978;28;20042;-70
2021/01/24 00:07:49;;;;;;;27.53;14.70;;;;;;;-2.72;100.00;98963.94;4967515;28;20081;-70
2021/01/24 00:10:18;;;;;;;27.70;14.70;;;;;;;-2.70;100.00;98961.34;4968089;28;20042;-70
2021/01/24 00:12:46;;;;;;;28.80;14.60;;;;;;;-2.67;100.00;98969.13;4985372;28;20039;-70
2021/01/24 00:15:12;;;;;;;32.97;15.63;;;;;;;-2.64;100.00;98972.59;4969755;28;20046;-70
2021/01/24 00:17:38;;;;;;;32.37;15.73;;;;;;;-2.61;100.00;98970.03;4968794;28;20038;-72
2021/01/24 00:20:08;;;;;;;27.20;15.37;;;;;;;-2.58;100.00;98976.94;4985633;28;20047;-72
2021/01/24 00:22:35;;;;;;;32.13;15.03;;;;;;;-2.56;100.00;98977.81;4987449;28;20046;-71
2021/01/24 00:25:02;;;;;;;30.27;15.40;;;;;;;-2.51;100.00;98976.13;4951146;28;20046;-72
2021/01/24 00:27:29;;;;;;;31.07;14.73;;;;;;;-2.50;100.00;98976.97;4951349;28;20155;-72
2021/01/24 00:29:55;;;;;;;27.20;13.73;;;;;;;-2.49;100.00;98979.56;4986711;28;20042;-71
2021/01/24 00:32:21;;;;;;;30.70;14.73;;;;;;;-2.49;100.00;98973.53;4990453;28;20046;-72
2021/01/24 00:34:48;;;;;;;30.13;14.93;;;;;;;-2.47;100.00;98979.56;4968795;28;20049;-72
2021/01/24 00:37:14;;;;;;;33.17;15.83;;;;;;;-2.46;100.00;98971.81;4984509;28;20509;-72
2021/01/24 00:39:40;;;;;;;27.03;14.40;;;;;;;-2.44;100.00;98975.25;4988812;28;20046;-72
2021/01/24 00:42:06;;;;;;;26.80;13.73;;;;;;;-2.43;100.00;98977.00;4953561;28;20085;-72
2021/01/24 00:44:32;;;;;;;25.17;12.63;;;;;;;-2.44;100.00;98970.09;4987605;28;20109;-72
2021/01/24 00:46:59;;;;;;;24.07;12.77;;;;;;;-2.44;100.00;98979.56;4988335;28;20098;-72
2021/01/24 00:49:25;;;;;;;25.80;12.63;;;;;;;-2.44;100.00;98975.25;4970116;28;20038;-72
2021/01/24 00:51:51;;;;;;;23.63;11.97;;;;;;;-2.43;100.00;98977.00;4986709;28;20727;-72
2021/01/24 00:54:18;;;;;;;23.13;12.30;;;;;;;-2.41;100.00;98977.00;4987745;28;20043;-71
2021/01/24 00:56:44;;;;;;;24.47;12.70;;;;;;;-2.41;100.00;98975.28;4987891;28;20062;-71
2021/01/24 00:59:10;;;;;;;21.67;11.57;;;;;;;-2.41;100.00;98980.47;4953235;28;20046;-72
2021/01/24 01:01:36;;;;;;;26.63;12.70;;;;;;;-2.41;100.00;98977.88;4971025;28;20409;-71
2021/01/24 01:04:02;;;;;;;24.70;12.47;;;;;;;-2.42;100.00;98983.91;4970140;28;20066;-73
2021/01/24 01:06:29;;;;;;;30.93;14.13;;;;;;;-2.41;100.00;98983.06;4955730;28;20046;-73
2021/01/24 01:08:55;;;;;;;27.07;13.53;;;;;;;-2.41;100.00;98980.47;4987384;28;20049;-74
2021/01/24 01:11:22;;;;;;;25.57;12.87;;;;;;;-2.41;100.00;98970.13;4987608;28;20104;-72
2021/01/24 01:13:48;;;;;;;24.33;11.77;;;;;;;-2.40;100.00;98976.16;4988015;28;20045;-75
2021/01/24 01:16:14;;;;;;;24.00;13.33;;;;;;;-2.41;100.00;98977.00;4965883;28;20054;-77
2021/01/24 01:18:41;;;;;;;21.93;12.17;;;;;;;-2.39;100.00;98981.31;4970744;28;20052;-71
2021/01/24 01:21:07;;;;;;;25.13;12.93;;;;;;;-2.39;100.00;98977.88;4953757;28;20053;-77
2021/01/24 01:23:33;;;;;;;26.73;12.83;;;;;;;-2.40;100.00;98986.50;4972339;28;20042;-75
2021/01/24 01:25:59;;;;;;;22.40;11.53;;;;;;;-2.39;100.00;98993.41;4997227;28;20049;-75
2021/01/24 01:28:25;;;;;;;24.80;12.43;;;;;;;-2.38;100.00;98990.81;4987990;28;20042;-76
2021/01/24 01:30:52;;;;;;;24.23;13.33;;;;;;;-2.37;100.00;98991.69;4954155;28;20054;-76
2021/01/24 01:33:18;;;;;;;26.93;13.40;;;;;;;-2.37;100.00;98992.53;4985024;28;20035;-74
2021/01/24 01:35:44;;;;;;;25.23;13.47;;;;;;;-2.37;100.00;98983.91;4959638;28;20042;-72
2021/01/24 01:38:10;;;;;;;26.07;13.87;;;;;;;-2.37;100.00;98987.38;4947880;28;20038;-71
2021/01/24 01:40:37;;;;;;;27.23;14.37;;;;;;;-2.38;100.00;98988.22;4951019;28;20047;-75
2021/01/24 01:43:03;;;;;;;26.77;14.30;;;;;;;-2.39;100.00;98991.66;4967991;28;20034;-76
2021/01/24 01:45:29;;;;;;;27.37;14.23;;;;;;;-2.38;100.00;98980.47;4964561;28;20046;-74
2021/01/24 01:47:57;;;;;;;26.43;12.60;;;;;;;-2.38;100.00;98985.63;4976895;28;20044;-77
2021/01/24 01:50:24;;;;;;;25.50;11.80;;;;;;;-2.38;100.00;98984.78;4986581;28;20034;-73
2021/01/24 01:52:50;;;;;;;24.43;12.43;;;;;;;-2.39;100.00;98983.91;4970980;28;20403;-75
2021/01/24 01:55:16;;;;;;;23.23;12.33;;;;;;;-2.37;100.00;98989.09;4970193;28;20066;-75
2021/01/24 01:57:42;;;;;;;23.87;12.20;;;;;;;-2.38;100.00;98979.59;4961463;28;20042;-74
2021/01/24 02:00:09;;;;;;;22.83;12.43;;;;;;;-2.39;100.00;98983.91;4983278;28;20093;-73
2021/01/24 02:03:09;;;;;;;23.27;11.93;;;;;;;-2.39;100.00;98980.47;4972721;28;20042;-71
2021/01/24 02:05:48;;;;;;;21.67;11.97;;;;;;;-2.40;100.00;98982.19;4971495;28;20065;-72
2021/01/24 02:08:19;;;;;;;24.70;12.73;;;;;;;-2.39;100.00;98983.91;4982846;28;20062;-72
2021/01/24 02:10:57;;;;;;;28.50;13.90;;;;;;;-2.37;100.00;98987.38;4985167;28;20046;-71
2021/01/24 02:13:54;;;;;;;30.43;14.50;;;;;;;-2.38;100.00;98985.63;4968524;28;20070;-77
2021/01/24 02:16:20;;;;;;;26.50;12.23;;;;;;;-2.37;100.00;98986.50;4972751;28;20204;-71
2021/01/24 02:18:47;;;;;;;25.23;13.63;;;;;;;-2.36;100.00;98986.50;4950308;28;20053;-75
2021/01/24 02:21:25;;;;;;;25.73;12.20;;;;;;;-2.35;100.00;98983.09;4959283;28;20047;-77
2021/01/24 02:23:53;;;;;;;22.47;11.90;;;;;;;-2.36;100.00;98981.34;4968154;28;20619;-72
2021/01/24 02:26:37;;;;;;;24.70;11.73;;;;;;;-2.35;100.00;98980.50;4996098;28;20034;-73
2021/01/24 02:29:08;;;;;;;30.10;15.23;;;;;;;-2.31;100.00;98982.22;4973332;28;20065;-74
2021/01/24 02:31:36;;;;;;;25.40;13.87;;;;;;;-2.29;100.00;98985.69;4971080;28;20487;-72
2021/01/24 02:34:03;;;;;;;29.30;15.03;;;;;;;-2.27;100.00;98981.41;4972101;28;20510;-73
2021/01/24 02:39:10;;;;;;;31.10;15.53;;;;;;;-2.24;100.00;98985.72;4962893;28;20061;-70
2021/01/24 02:41:37;;;;;;;27.03;13.17;;;;;;;-2.25;100.00;98986.56;4969696;28;20043;-70
2021/01/24 02:44:05;;;;;;;30.70;15.47;;;;;;;-2.25;100.00;98983.13;4969077;28;20554;-68
2021/01/24 02:46:32;;;;;;;29.40;14.50;;;;;;;-2.24;100.00;98988.28;4969449;28;20046;-68
2021/01/24 02:48:59;;;;;;;30.20;14.93;;;;;;;-2.23;100.00;98990.03;4953506;28;20038;-67
2021/01/24 02:51:25;;;;;;;26.03;14.30;;;;;;;-2.23;100.00;98992.59;4968500;28;20035;-67
2021/01/24 02:53:53;;;;;;;27.73;15.07;;;;;;;-2.21;100.00;98987.44;4953934;28;20452;-68
2021/01/24 02:56:21;;;;;;;42.83;20.17;;;;;;;-2.16;100.00;98983.16;4963115;28;20038;-68
2021/01/24 02:58:52;;;;;;;39.07;18.83;;;;;;;-2.11;100.00;98986.59;4967837;28;20046;-68
2021/01/24 03:01:18;;;;;;;32.90;17.00;;;;;;;-2.11;100.00;98976.25;4925237;28;20393;-68
2021/01/24 03:03:46;;;;;;;30.07;16.33;;;;;;;-2.12;100.00;98975.38;4952726;28;20407;-68
2021/01/24 03:06:12;;;;;;;28.50;14.73;;;;;;;-2.12;100.00;98979.69;4970241;28;20047;-68
2021/01/24 03:08:39;;;;;;;33.73;15.70;;;;;;;-2.15;100.00;98975.38;4953329;28;20047;-68
2021/01/24 03:11:08;;;;;;;28.07;15.20;;;;;;;-2.17;100.00;98968.50;4960107;28;20039;-68
2021/01/24 03:13:48;;;;;;;29.13;15.23;;;;;;;-2.20;100.00;98968.47;4953644;28;20038;-70
2021/01/24 03:16:15;;;;;;;28.03;14.63;;;;;;;-2.20;100.00;98969.31;4967568;28;20504;-70
2021/01/24 03:18:43;;;;;;;27.23;15.10;;;;;;;-2.21;100.00;98962.44;4952423;28;20455;-69
2021/01/24 03:21:10;;;;;;;26.17;14.60;;;;;;;-2.21;100.00;98958.97;4937101;28;20047;-70
2021/01/24 03:23:37;;;;;;;32.67;15.50;;;;;;;-2.23;100.00;98951.22;4952699;28;20066;-70
2021/01/24 03:26:05;;;;;;;25.93;14.03;;;;;;;-2.23;100.00;98948.63;4964880;28;20031;-69
2021/01/24 03:28:35;;;;;;;32.07;15.37;;;;;;;-2.24;100.00;98953.81;4968676;28;20042;-70
2021/01/24 03:31:02;;;;;;;25.43;14.33;;;;;;;-2.24;100.00;98951.22;4969343;28;20049;-70
2021/01/24 03:33:29;;;;;;;29.07;13.53;;;;;;;-2.25;100.00;98954.66;4952998;28;20042;-70
2021/01/24 03:35:55;;;;;;;26.13;13.97;;;;;;;-2.27;100.00;98952.94;4968569;28;20064;-70
2021/01/24 03:38:21;;;;;;;27.50;13.37;;;;;;;-2.28;100.00;98952.91;4947304;28;20270;-67
2021/01/24 03:40:47;;;;;;;22.10;11.93;;;;;;;-2.30;100.00;98947.75;4965802;28;20035;-68
2021/01/24 03:43:13;;;;;;;25.17;13.00;;;;;;;-2.30;100.00;98955.50;4968672;28;20039;-69
2021/01/24 03:45:39;;;;;;;28.00;13.27;;;;;;;-2.29;100.00;98958.94;4969925;28;20113;-69
2021/01/24 03:48:05;;;;;;;25.00;13.47;;;;;;;-2.29;100.00;98957.22;4950319;28;20042;-69
2021/01/24 03:50:31;;;;;;;27.37;14.63;;;;;;;-2.29;100.00;98953.78;4969494;28;20105;-68
2021/01/24 03:52:57;;;;;;;26.23;14.87;;;;;;;-2.31;100.00;98958.94;4952072;28;20527;-70
2021/01/24 03:55:24;;;;;;;26.53;13.63;;;;;;;-2.31;100.00;98961.53;4967513;28;20145;-70
2021/01/24 03:57:50;;;;;;;27.23;13.67;;;;;;;-2.31;100.00;98958.09;4951993;28;20034;-69
2021/01/24 04:00:16;;;;;;;30.53;14.23;;;;;;;-2.31;100.00;98948.59;4968647;28;20093;-70
2021/01/24 04:02:42;;;;;;;33.37;16.23;;;;;;;-2.29;100.00;98949.47;4967749;28;20105;-70
2021/01/24 04:05:09;;;;;;;29.03;14.80;;;;;;;-2.30;100.00;98950.31;4969605;28;20039;-70
2021/01/24 04:07:35;;;;;;;26.20;14.77;;;;;;;-2.29;100.00;98951.19;4969698;28;20117;-70
2021/01/24 04:10:03;;;;;;;35.57;17.33;;;;;;;-2.29;100.00;98946.00;4969019;28;20039;-70
2021/01/24 04:12:30;;;;;;;29.97;16.43;;;;;;;-2.27;100.00;98947.78;4968377;28;20046;-69
2021/01/24 04:14:56;;;;;;;30.47;15.53;;;;;;;-2.26;100.00;98953.81;4966867;28;20500;-70
2021/01/24 04:17:22;;;;;;;33.83;15.43;;;;;;;-2.27;100.00;98946.88;4951285;28;20081;-70
2021/01/24 04:19:48;;;;;;;30.37;14.90;;;;;;;-2.25;100.00;98946.91;4951102;28;20046;-69
2021/01/24 04:22:14;;;;;;;29.33;16.07;;;;;;;-2.23;100.00;98956.38;4951759;28;20686;-70
2021/01/24 04:24:40;;;;;;;25.73;14.17;;;;;;;-2.23;100.00;98952.94;4968771;28;20039;-69
2021/01/24 04:27:07;;;;;;;28.17;15.27;;;;;;;-2.23;100.00;98953.81;4964980;28;20121;-70
2021/01/24 04:29:33;;;;;;;28.33;14.40;;;;;;;-2.21;100.00;98951.22;4968178;28;20592;-70
2021/01/24 04:31:59;;;;;;;27.07;15.00;;;;;;;-2.21;100.00;98948.63;4968965;28;20109;-69
2021/01/24 04:34:25;;;;;;;29.17;14.77;;;;;;;-2.20;100.00;98952.94;4968869;28;20154;-69
2021/01/24 04:36:51;;;;;;;26.93;14.40;;;;;;;-2.20;100.00;98951.22;4951975;28;20577;-69
2021/01/24 04:39:18;;;;;;;28.20;13.87;;;;;;;-2.18;100.00;98944.34;4967526;28;20077;-69
2021/01/24 04:41:47;;;;;;;27.30;14.17;;;;;;;-2.15;100.00;98948.66;4967702;28;20455;-69
2021/01/24 04:44:13;;;;;;;43.23;18.63;;;;;;;-2.11;100.00;98952.97;4949994;28;20043;-69
2021/01/24 04:46:40;;;;;;;38.53;18.70;;;;;;;-2.08;100.00;98942.66;4950563;28;20034;-69
2021/01/24 04:49:06;;;;;;;32.17;18.17;;;;;;;-2.07;100.00;98939.19;4948742;28;20042;-69
2021/01/24 04:51:32;;;;;;;38.07;18.40;;;;;;;-2.04;100.00;98941.78;4965142;28;20050;-69
2021/01/24 04:53:59;;;;;;;35.77;18.13;;;;;;;-2.01;100.00;98939.22;4950134;28;20110;-70
2021/01/24 04:56:25;;;;;;;36.27;18.73;;;;;;;-2.02;100.00;98935.78;4968877;28;20042;-69
2021/01/24 04:58:53;;;;;;;35.57;16.93;;;;;;;-2.00;100.00;98948.72;4967164;28;20167;-70
2021/01/24 05:01:20;;;;;;;31.53;16.13;;;;;;;-2.00;100.00;98944.41;4954473;28;20416;-70
2021/01/24 05:03:50;;;;;;;35.00;15.83;;;;;;;-2.01;100.00;98942.66;4962702;28;20046;-70
2021/01/24 05:06:16;;;;;;;33.73;16.93;;;;;;;-2.00;100.00;98946.97;4967943;28;20093;-70
2021/01/24 05:08:46;;;;;;;28.13;14.57;;;;;;;-2.00;100.00;98936.63;4954800;28;20125;-70
2021/01/24 05:11:13;;;;;;;28.40;14.90;;;;;;;-2.00;100.00;98939.22;4968430;28;20046;-70
2021/01/24 05:13:39;;;;;;;31.53;16.73;;;;;;;-1.98;100.00;98939.22;4950992;28;20074;-69
2021/01/24 05:16:06;;;;;;;30.87;15.30;;;;;;;-1.98;100.00;98934.91;4968116;28;20039;-69
2021/01/24 05:18:33;;;;;;;32.17;15.80;;;;;;;-1.96;100.00;98939.22;4967914;28;20050;-70
2021/01/24 05:21:02;;;;;;;40.43;18.10;;;;;;;-1.93;100.00;98942.69;4950586;28;20488;-69
2021/01/24 05:23:28;;;;;;;40.17;19.00;;;;;;;-1.92;100.00;98936.66;4949225;28;20066;-69
2021/01/24 05:25:56;;;;;;;34.37;18.20;;;;;;;-1.91;100.00;98938.38;4950280;28;20038;-69
2021/01/24 05:28:27;;;;;;;36.87;16.27;;;;;;;-1.89;100.00;98930.59;4966427;28;20042;-69
2021/01/24 05:31:07;;;;;;;35.80;18.67;;;;;;;-1.86;100.00;98943.53;4964185;28;20404;-69
2021/01/24 05:33:33;;;;;;;39.67;19.97;;;;;;;-1.82;100.00;98935.78;4967294;28;20061;-70
2021/01/24 05:36:06;;;;;;;37.83;18.13;;;;;;;-1.80;100.00;98939.25;4965006;28;20047;-70
2021/01/24 05:38:32;;;;;;;31.07;15.70;;;;;;;-1.80;100.00;98936.66;4964994;28;20085;-70
2021/01/24 05:41:01;;;;;;;27.80;15.33;;;;;;;-1.79;100.00;98932.34;4949232;28;20809;-70
2021/01/24 05:43:32;;;;;;;32.70;16.07;;;;;;;-1.79;100.00;98946.13;4949169;28;20488;-69
2021/01/24 05:45:58;;;;;;;30.60;14.60;;;;;;;-1.79;100.00;98935.78;4950590;28;20074;-70
2021/01/24 05:48:24;;;;;;;35.23;16.40;;;;;;;-1.80;100.00;98936.66;4949133;28;20034;-70
2021/01/24 05:50:51;;;;;;;26.30;14.07;;;;;;;-1.80;100.00;98944.41;4932021;28;20106;-70
2021/01/24 05:53:17;;;;;;;33.97;15.07;;;;;;;-1.78;100.00;98950.44;4934941;28;20377;-69
2021/01/24 05:55:44;;;;;;;26.87;14.07;;;;;;;-1.77;100.00;98941.81;4968826;28;20484;-70
2021/01/24 05:58:19;;;;;;;26.40;14.17;;;;;;;-1.78;100.00;98934.91;4965601;28;20089;-70
2021/01/24 06:00:47;;;;;;;29.07;14.40;;;;;;;-1.76;100.00;98930.63;4967464;28;20093;-70
2021/01/24 06:03:15;;;;;;;29.43;13.20;;;;;;;-1.76;100.00;98928.03;4967436;28;20110;-69
2021/01/24 06:05:42;;;;;;;29.53;15.37;;;;;;;-1.74;100.00;98928.03;4954340;28;20054;-69
2021/01/24 06:08:09;;;;;;;32.40;15.27;;;;;;;-1.72;100.00;98926.31;4952067;28;20098;-69
2021/01/24 06:10:36;;;;;;;32.77;16.33;;;;;;;-1.75;100.00;98934.94;4947544;28;20035;-69
2021/01/24 06:13:03;;;;;;;23.07;13.40;;;;;;;-1.75;100.00;98941.84;4948755;28;20050;-69
2021/01/24 06:15:31;;;;;;;27.40;13.57;;;;;;;-1.76;100.00;98941.00;4950632;28;20377;-69
2021/01/24 06:17:58;;;;;;;26.47;13.60;;;;;;;-1.75;100.00;98939.25;4950197;28;20085;-69
2021/01/24 06:20:38;;;;;;;28.03;14.90;;;;;;;-1.74;100.00;98939.25;4966616;28;20097;-69
2021/01/24 06:23:26;;;;;;;27.00;13.07;;;;;;;-1.73;100.00;98945.28;4949710;28;20090;-69
2021/01/24 06:25:53;;;;;;;30.07;14.90;;;;;;;-1.73;100.00;98945.28;4949829;28;20093;-70
2021/01/24 06:28:29;;;;;;;26.73;14.77;;;;;;;-1.74;100.00;98946.16;4949962;28;20059;-70
2021/01/24 06:30:55;;;;;;;30.07;13.37;;;;;;;-1.75;100.00;98942.72;4948471;28;20050;-70
2021/01/24 06:33:23;;;;;;;27.47;14.23;;;;;;;-1.74;100.00;98951.34;4949941;28;20045;-70
2021/01/24 06:36:00;;;;;;;31.10;15.33;;;;;;;-1.73;100.00;98955.66;4950178;28;20535;-70
2021/01/24 06:38:29;;;;;;;25.63;14.27;;;;;;;-1.74;100.00;98957.38;4946942;28;20050;-70
2021/01/24 06:40:55;;;;;;;32.63;15.60;;;;;;;-1.74;100.00;98949.63;4960067;28;20043;-70
2021/01/24 06:43:40;;;;;;;29.33;15.40;;;;;;;-1.73;100.00;98958.25;4963923;28;20381;-70
2021/01/24 06:46:08;;;;;;;30.17;14.83;;;;;;;-1.74;100.00;98952.19;4970899;28;20400;-69
2021/01/24 06:48:43;;;;;;;37.67;18.17;;;;;;;-1.74;100.00;98953.94;4948324;29;20042;-70
2021/01/24 06:51:29;;;;;;;33.47;18.90;;;;;;;-1.75;100.00;98955.66;4956008;28;20074;-70
2021/01/24 06:53:56;;;;;;;30.47;16.67;;;;;;;-1.76;100.00;98956.53;4957991;28;20042;-70
2021/01/24 06:56:22;;;;;;;32.70;16.77;;;;;;;-1.77;100.00;98959.94;4967391;28;20049;-70
2021/01/24 06:58:49;;;;;;;31.07;16.70;;;;;;;-1.77;100.00;98962.53;4970201;28;20043;-70
2021/01/24 07:01:32;;;;;;;27.40;15.67;;;;;;;-1.77;100.00;98964.25;4967876;28;20643;-70
2021/01/24 07:04:17;;;;;;;27.27;15.03;;;;;;;-1.75;100.00;98954.78;4967022;28;20496;-70
2021/01/24 07:06:44;;;;;;;24.90;13.07;;;;;;;-1.75;100.00;98958.25;4977832;28;20038;-70
2021/01/24 07:09:25;;;;;;;24.23;12.80;;;;;;;-1.73;100.00;98959.09;4954297;28;20163;-67
2021/01/24 07:11:58;;;;;;;22.57;12.37;;;;;;;-1.71;100.00;98947.00;4969741;28;20039;-70
2021/01/24 07:14:37;;;;;;;22.33;11.63;;;;;;;-1.69;100.00;98939.25;4969082;28;20073;-70
2021/01/24 07:17:10;;;;;;;21.53;11.80;;;;;;;-1.67;100.00;98939.28;4966451;28;20061;-70
2021/01/24 07:19:39;;;;;;;23.30;10.60;;;;;;;-1.64;100.00;98942.72;4963325;28;20055;-70
2021/01/24 07:22:06;;;;;;;27.27;12.80;;;;;;;-1.63;100.00;98939.25;4943479;28;20471;-70
2021/01/24 07:24:32;;;;;;;28.97;12.93;;;;;;;-1.61;100.00;98945.28;4955066;28;20520;-69
2021/01/24 07:26:58;;;;;;;24.20;11.40;;;;;;;-1.60;100.00;98946.16;4964100;28;20031;-70
2021/01/24 07:29:26;;;;;;;20.70;11.60;;;;;;;-1.59;100.00;98946.19;4948778;28;20093;-70
2021/01/24 07:31:52;;;;;;;34.93;15.37;;;;;;;-1.60;100.00;98948.75;4963890;28;20318;-70
2021/01/24 07:34:22;;;;;;;31.20;13.90;;;;;;;-1.60;100.00;98952.19;4966709;28;20038;-69
2021/01/24 07:36:49;;;;;;;26.77;12.63;;;;;;;-1.57;100.00;98953.94;4968138;28;20093;-70
2021/01/24 07:39:18;;;;;;;21.93;11.53;;;;;;;-1.56;100.00;98953.94;4949042;28;20031;-69
2021/01/24 07:41:45;;;;;;;23.83;12.80;;;;;;;-1.53;100.00;98953.94;4967043;28;20555;-69
2021/01/24 07:44:11;;;;;;;21.07;12.50;;;;;;;-1.49;100.00;98952.22;4962210;28;20094;-70
2021/01/24 07:46:37;;;;;;;22.50;11.50;;;;;;;-1.44;100.00;98958.25;4944692;28;20030;-70
2021/01/24 07:49:04;;;;;;;21.00;11.33;;;;;;;-1.40;100.00;98953.94;4967460;28;21525;-70
2021/01/24 07:51:30;;;;;;;21.83;11.43;;;;;;;-1.35;100.00;98954.78;4967001;28;20078;-70
2021/01/24 07:53:57;;;;;;;20.90;11.30;;;;;;;-1.31;100.00;98954.81;4955321;28;20047;-70
2021/01/24 07:56:23;;;;;;;23.43;12.47;;;;;;;-1.27;100.00;98953.94;4965011;28;20070;-69
2021/01/24 07:58:49;;;;;;;26.17;12.47;;;;;;;-1.23;100.00;98955.66;4949148;28;20181;-69
2021/01/24 08:01:16;;;;;;;25.00;12.40;;;;;;;-1.19;100.00;98957.38;4964991;28;20488;-70
2021/01/24 08:03:42;;;;;;;23.93;13.00;;;;;;;-1.17;100.00;98963.44;4950464;28;20053;-68
2021/01/24 08:06:12;;;;;;;23.17;12.57;;;;;;;-1.12;100.00;98973.78;4963847;28;20105;-70
2021/01/24 08:08:41;;;;;;;27.67;15.37;;;;;;;-1.09;100.00;98975.50;4965843;28;20093;-69
2021/01/24 08:11:08;;;;;;;27.73;14.03;;;;;;;-1.06;100.00;98975.53;4965623;28;20488;-70
2021/01/24 08:13:35;;;;;;;24.53;13.13;;;;;;;-1.01;100.00;98964.31;4955082;28;20643;-70
2021/01/24 08:16:05;;;;;;;25.10;13.00;;;;;;;-0.95;100.00;98968.59;4959224;28;20043;-69
2021/01/24 08:18:32;;;;;;;22.57;12.50;;;;;;;-0.91;100.00;98971.19;4955309;28;20043;-70
2021/01/24 08:20:59;;;;;;;25.17;12.33;;;;;;;-0.85;100.00;98973.75;4940558;28;20039;-70
2021/01/24 08:23:25;;;;;;;23.77;12.10;;;;;;;-0.80;100.00;98978.94;4972171;28;20085;-70
2021/01/24 08:26:00;;;;;;;20.50;11.40;;;;;;;-0.73;100.00;98966.84;4969830;28;20038;-69
2021/01/24 08:28:27;;;;;;;22.73;11.00;;;;;;;-0.68;100.00;98972.84;4948533;28;20516;-70
2021/01/24 08:30:53;;;;;;;23.57;12.63;;;;;;;-0.62;100.00;98968.53;4963280;28;20034;-70
2021/01/24 08:33:19;;;;;;;23.20;11.27;;;;;;;-0.55;100.00;98976.28;4960191;28;20519;-69
2021/01/24 08:35:46;;;;;;;24.03;11.80;;;;;;;-0.48;100.00;98975.41;4960400;28;20055;-69
2021/01/24 08:38:13;;;;;;;26.87;11.60;;;;;;;-0.42;100.00;98972.78;4962103;28;20105;-70
2021/01/24 08:40:40;;;;;;;23.77;11.13;;;;;;;-0.32;100.00;98977.09;4961210;28;20043;-71
2021/01/24 08:43:07;;;;;;;21.50;11.50;;;;;;;-0.24;100.00;98977.06;4951371;28;20120;-71
2021/01/24 08:45:35;;;;;;;23.07;11.37;;;;;;;-0.17;100.00;98976.13;4949144;28;20563;-71
2021/01/24 08:48:05;;;;;;;22.73;11.27;;;;;;;-0.08;100.00;98976.13;4966594;28;20101;-71
2021/01/24 08:50:32;;;;;;;18.97;10.17;;;;;;;0.01;100.00;98981.28;4946273;28;20042;-70
2021/01/24 08:53:00;;;;;;;20.77;10.17;;;;;;;0.15;100.00;98989.81;4966066;28;20503;-68
2021/01/24 08:55:27;;;;;;;22.93;12.50;;;;;;;0.22;100.00;98982.88;4970450;28;20467;-73
2021/01/24 08:57:53;;;;;;;23.00;11.90;;;;;;;0.32;100.00;98987.13;4950007;28;20086;-72
2021/01/24 09:00:21;;;;;;;18.83;10.73;;;;;;;0.39;100.00;98987.97;4958401;28;20045;-72
2021/01/24 09:02:50;;;;;;;25.23;12.40;;;;;;;0.46;100.00;98990.53;4962673;23;20038;-72
2021/01/24 09:05:32;;;;;;;24.97;13.20;;;;;;;0.54;100.00;98993.94;4969351;28;20035;-73
2021/01/24 09:07:58;;;;;;;23.17;11.33;;;;;;;0.55;100.00;98994.78;4980755;28;20054;-74
2021/01/24 09:10:31;;;;;;;25.13;12.63;;;;;;;0.59;100.00;98987.81;4968364;28;20050;-73
2021/01/24 09:13:00;;;;;;;24.17;12.07;;;;;;;0.59;100.00;98985.22;4990079;28;20046;-73
2021/01/24 09:15:29;;;;;;;22.83;11.40;;;;;;;0.58;100.00;98981.75;4974457;28;20077;-74
2021/01/24 09:17:56;;;;;;;20.53;10.70;;;;;;;0.61;100.00;98988.69;4956084;28;20042;-73
2021/01/24 09:20:25;;;;;;;19.03;10.87;;;;;;;0.60;100.00;98986.97;4958819;28;20050;-73
2021/01/24 09:22:51;;;;;;;19.23;10.90;;;;;;;0.58;100.00;98989.56;4969596;28;20615;-73
2021/01/24 09:25:17;;;;;;;20.93;11.23;;;;;;;0.58;100.00;99002.56;4984184;28;20034;-74
2021/01/24 09:27:46;;;;;;;21.53;11.23;;;;;;;0.52;100.00;99000.00;4976716;28;20687;-73
2021/01/24 09:30:14;;;;;;;23.30;11.33;;;;;;;0.49;100.00;99000.00;4962975;28;20042;-74
2021/01/24 09:32:41;;;;;;;20.70;11.33;;;;;;;0.48;100.00;98999.16;4984830;28;20038;-74
2021/01/24 09:35:08;;;;;;;20.40;11.07;;;;;;;0.46;100.00;99000.91;4977658;28;20074;-74
2021/01/24 09:37:35;;;;;;;13.80;8.57;;;;;;;0.45;100.00;98994.00;4965755;28;20669;-74
2021/01/24 09:40:03;;;;;;;18.60;9.77;;;;;;;0.46;100.00;98994.84;4949967;28;20066;-75
2021/01/24 09:42:31;;;;;;;21.50;10.57;;;;;;;0.47;100.00;98989.63;4950815;28;20043;-74
2021/01/24 09:44:57;;;;;;;18.40;8.57;;;;;;;0.48;100.00;98991.38;4969035;28;20483;-74
2021/01/24 09:47:24;;;;;;;16.57;10.60;;;;;;;0.51;100.00;98995.69;4980852;28;20068;-73
2021/01/24 09:49:50;;;;;;;17.43;10.47;;;;;;;0.51;100.00;98993.97;4962156;28;20093;-74
2021/01/24 09:52:16;;;;;;;17.67;9.53;;;;;;;0.56;100.00;98996.50;4975447;28;20049;-74
2021/01/24 09:54:43;;;;;;;19.40;9.80;;;;;;;0.57;100.00;98993.03;4981863;28;20039;-75
2021/01/24 09:57:09;;;;;;;19.03;9.27;;;;;;;0.62;100.00;98990.41;4966387;28;20125;-74
2021/01/24 09:59:37;;;;;;;17.73;9.00;;;;;;;0.64;100.00;98994.72;4959624;28;20035;-73
2021/01/24 10:02:03;;;;;;;17.93;10.43;;;;;;;0.67;100.00;98994.69;4964760;28;20038;-73
2021/01/24 10:04:29;;;;;;;18.47;9.90;;;;;;;0.69;100.00;98992.97;4973885;28;20504;-74
2021/01/24 10:06:56;;;;;;;16.33;8.97;;;;;;;0.74;100.00;98995.50;4963057;28;20427;-73
2021/01/24 10:09:22;;;;;;;18.63;10.43;;;;;;;0.75;100.00;98995.50;4977138;28;20057;-73
2021/01/24 10:11:48;;;;;;;18.97;9.87;;;;;;;0.77;100.00;98995.50;4977708;28;20034;-74
2021/01/24 10:14:18;;;;;;;16.57;10.23;;;;;;;0.81;100.00;98994.59;4976227;28;20044;-74
2021/01/24 10:16:45;;;;;;;19.77;9.60;;;;;;;0.88;100.00;98996.28;4964861;28;20121;-73
2021/01/24 10:19:11;;;;;;;17.83;10.23;;;;;;;0.94;100.00;98991.03;4976912;28;20042;-75
2021/01/24 10:21:37;;;;;;;18.87;10.07;;;;;;;1.03;100.00;98992.69;4984944;28;20050;-74
2021/01/24 10:24:04;;;;;;;18.67;10.30;;;;;;;1.02;100.00;99002.22;4973890;28;20034;-73
2021/01/24 10:26:30;;;;;;;18.47;9.57;;;;;;;1.08;100.00;98999.56;4964363;28;20112;-73
2021/01/24 10:28:56;;;;;;;17.53;10.03;;;;;;;1.16;100.00;98999.47;4963020;28;20034;-73
2021/01/24 10:31:22;;;;;;;20.70;11.27;;;;;;;1.19;100.00;98999.47;4969653;28;20030;-73
2021/01/24 10:33:48;;;;;;;20.07;9.73;;;;;;;1.22;100.00;99003.78;4972628;28;20048;-73
2021/01/24 10:36:15;;;;;;;19.60;9.77;;;;;;;1.27;100.00;98996.81;4974246;28;20046;-74
2021/01/24 10:38:42;;;;;;;18.87;10.50;;;;;;;1.30;100.00;98997.63;4968304;28;20063;-73
2021/01/24 10:41:09;;;;;;;17.30;8.63;;;;;;;1.35;100.00;98995.00;4968929;28;20053;-75
2021/01/24 10:43:35;;;;;;;19.43;10.30;;;;;;;1.37;100.00;98993.22;4957023;28;20101;-74
2021/01/24 10:46:01;;;;;;;17.93;9.63;;;;;;;1.42;100.00;98992.28;4968004;28;20038;-74
2021/01/24 10:48:27;;;;;;;19.87;9.87;;;;;;;1.47;100.00;99007.00;4979512;28;20053;-74
2021/01/24 10:50:53;;;;;;;16.97;8.63;;;;;;;1.48;100.00;98995.72;4965844;28;20113;-74
2021/01/24 10:53:20;;;;;;;20.20;10.57;;;;;;;1.47;100.00;99000.06;4969294;28;20061;-75
2021/01/24 10:55:46;;;;;;;25.20;14.93;;;;;;;1.51;100.00;98990.47;4961231;28;20438;-75
2021/01/24 10:58:12;;;;;;;22.63;13.83;;;;;;;1.62;100.00;98993.81;4982789;28;20039;-74
2021/01/24 11:00:38;;;;;;;19.90;10.77;;;;;;;1.68;100.00;98989.41;4946979;28;20051;-75
2021/01/24 11:03:05;;;;;;;16.30;10.17;;;;;;;1.76;100.00;98989.31;4971004;28;20530;-73
2021/01/24 11:05:32;;;;;;;18.37;9.27;;;;;;;1.80;100.00;98988.41;4967643;28;20053;-74
2021/01/24 11:07:59;;;;;;;16.70;10.07;;;;;;;1.89;100.00;98993.50;4964849;28;20403;-75
2021/01/24 11:10:25;;;;;;;16.70;10.60;;;;;;;1.92;100.00;98980.44;4955257;28;20031;-73
2021/01/24 11:12:51;;;;;;;18.37;8.77;;;;;;;1.93;100.00;98984.78;4978730;28;20050;-73
2021/01/24 11:15:18;;;;;;;13.40;8.00;;;;;;;2.02;100.00;98989.00;4976349;28;20042;-74
2021/01/24 11:17:44;;;;;;;15.40;8.83;;;;;;;2.06;100.00;98988.06;4982601;28;20034;-74